Henrieville, Utah
Current Conditions -  °F | °C
As of 12:53 AM on Saturday 20 Dec 2014 (Local Time) from KBCE Reporting Station
Overcast Overcast  
Wind Chill: 18°   Ceiling: 5500
Heat Index: 24°   Visibility: 10mi
Dew Point: 20°   Wind: 5mph
Humidity: 84%   Direction: 250°WSW
Pressure: 30.19"   Gusts: NA
Location:  37.56°N, 111.99°W
Report Text: KBCE 200753Z AUTO 25004KT 10SM BKN055 OVC070 M04/M07 A3019 RMK AO2 SLP208 T10441067
Loading
Personal Weather Stations






























Interactive Weather Map New forecast layout! Learn more

10-Day Weather Forecast

Advertisements
Track Severe Weather on mobile